Time;durP1;ratioP1;P1;durP2;ratioP2;P2;SDS_P1;SDS_P2;PMS_P1;PMS_P2;Temp;Humidity;BMP_temperature;BMP_pressure;BME280_temperature;BME280_humidity;BME280_pressure;Samples;Min_cycle;Max_cycle;Signal;HPM_P1;HPM_P2
2023/10/12 00:01:39;;;;;;;6.57;4.57;;;;;;;17.02;100.00;100221.00;5015656;28;20230;-78
2023/10/12 00:04:11;;;;;;;4.60;4.07;;;;;;;17.03;100.00;100214.88;5017421;28;20293;-82
2023/10/12 00:06:38;;;;;;;5.37;4.20;;;;;;;17.02;100.00;100207.94;5014872;28;20250;-82
2023/10/12 00:09:17;;;;;;;8.60;5.10;;;;;;;17.02;100.00;100202.72;5014667;28;20279;-82
2023/10/12 00:11:48;;;;;;;5.50;4.47;;;;;;;17.02;100.00;100197.47;5021559;28;20210;-82
2023/10/12 00:14:14;;;;;;;7.60;5.03;;;;;;;17.03;100.00;100195.75;5019877;28;20188;-79
2023/10/12 00:16:42;;;;;;;6.87;4.63;;;;;;;17.05;100.00;100196.53;5012546;28;20268;-82
2023/10/12 00:19:11;;;;;;;4.83;4.33;;;;;;;17.04;100.00;100187.81;5012025;28;20183;-79
2023/10/12 00:21:37;;;;;;;5.60;4.97;;;;;;;17.06;100.00;100188.63;5009663;28;20209;-81
2023/10/12 00:24:02;;;;;;;5.27;4.23;;;;;;;17.08;100.00;100185.09;5019964;28;20192;-80
2023/10/12 00:26:31;;;;;;;5.20;4.60;;;;;;;17.08;100.00;100185.09;5010819;28;20188;-82
2023/10/12 00:28:57;;;;;;;6.40;4.77;;;;;;;17.07;100.00;100184.25;5021087;28;20182;-81
2023/10/12 00:31:22;;;;;;;5.37;4.70;;;;;;;17.08;100.00;100175.50;5016331;28;20257;-81
2023/10/12 00:33:48;;;;;;;8.30;5.33;;;;;;;17.12;100.00;100177.06;5021934;28;20176;-82
2023/10/12 00:36:21;;;;;;;6.73;5.17;;;;;;;17.16;100.00;100180.44;5025578;28;20607;-83
2023/10/12 00:38:48;;;;;;;9.50;5.50;;;;;;;17.19;100.00;100173.34;5012991;28;20191;-79
2023/10/12 00:41:17;;;;;;;5.97;4.93;;;;;;;17.22;100.00;100180.19;5031320;28;20204;-81
2023/10/12 00:46:40;;;;;;;5.80;4.67;;;;;;;17.24;99.95;100182.78;5010165;28;20604;-82
2023/10/12 00:49:22;;;;;;;8.47;4.90;;;;;;;17.28;100.00;100179.09;5018262;28;20319;-81
2023/10/12 00:51:51;;;;;;;8.10;5.33;;;;;;;17.28;99.49;100166.91;5028022;28;20302;-82
2023/10/12 00:57:05;;;;;;;5.20;4.70;;;;;;;17.32;99.23;100167.63;5013849;28;20219;-82
2023/10/12 00:59:34;;;;;;;5.80;5.20;;;;;;;17.33;99.35;100169.31;5020470;28;20187;-80
2023/10/12 01:02:09;;;;;;;5.93;4.70;;;;;;;17.35;98.63;100164.91;5036152;28;20207;-80
2023/10/12 01:04:36;;;;;;;6.40;5.03;;;;;;;17.36;98.87;100158.75;5046025;28;20298;-80
2023/10/12 01:07:06;;;;;;;5.70;4.77;;;;;;;17.35;98.57;100157.88;5020969;28;20183;-82
2023/10/12 01:09:43;;;;;;;5.97;4.70;;;;;;;17.39;98.63;100149.91;5022516;28;20208;-80
2023/10/12 01:12:14;;;;;;;6.97;4.90;;;;;;;17.40;98.31;100154.25;5023059;28;20234;-81
2023/10/12 01:14:43;;;;;;;7.23;4.60;;;;;;;17.42;98.20;100153.25;5021624;28;20747;-82
2023/10/12 01:17:24;;;;;;;5.40;4.33;;;;;;;17.43;98.06;100160.19;5019487;28;20231;-82
2023/10/12 01:19:51;;;;;;;5.00;4.50;;;;;;;17.43;97.80;100154.97;5020936;28;21078;-80
2023/10/12 01:22:25;;;;;;;6.60;4.43;;;;;;;17.49;97.37;100159.09;5016656;28;20682;-81
2023/10/12 01:27:21;;;;;;;7.33;4.97;;;;;;;17.53;97.01;100152.84;5022288;28;20184;-81
2023/10/12 01:29:47;;;;;;;6.30;5.00;;;;;;;17.52;97.04;100149.38;5022584;28;20190;-81
2023/10/12 01:34:44;;;;;;;6.47;4.93;;;;;;;17.57;97.08;100143.09;5019401;28;20228;-81
2023/10/12 01:37:22;;;;;;;5.27;4.60;;;;;;;17.57;97.26;100143.97;5020561;28;20270;-81
2023/10/12 01:40:12;;;;;;;7.57;4.60;;;;;;;17.59;96.84;100141.28;5029157;28;20199;-79
2023/10/12 01:45:07;;;;;;;9.10;4.90;;;;;;;17.63;95.97;100142.84;5024975;28;20561;-81
2023/10/12 01:47:37;;;;;;;6.47;4.50;;;;;;;17.64;95.78;100148.00;5016596;28;20189;-80
2023/10/12 01:50:05;;;;;;;7.97;4.80;;;;;;;17.64;95.68;100132.31;5028308;28;20203;-81
2023/10/12 01:52:31;;;;;;;7.67;5.13;;;;;;;17.66;95.23;100138.34;5021324;28;20221;-80
2023/10/12 01:54:58;;;;;;;6.27;4.60;;;;;;;17.67;95.41;100141.81;5026161;28;20202;-81
2023/10/12 01:57:44;;;;;;;7.00;4.63;;;;;;;17.68;95.49;100140.91;5021837;28;20286;-81
2023/10/12 02:00:10;;;;;;;6.67;5.23;;;;;;;17.70;95.28;100140.84;5026234;28;20204;-78
2023/10/12 02:02:37;;;;;;;6.70;5.20;;;;;;;17.70;95.24;100146.91;5025441;28;20239;-82
2023/10/12 02:05:03;;;;;;;6.03;4.93;;;;;;;17.71;95.04;100145.16;5025323;28;20284;-81
2023/10/12 02:07:28;;;;;;;7.70;4.90;;;;;;;17.70;95.13;100139.06;5013575;28;20240;-80
2023/10/12 02:09:53;;;;;;;7.80;4.73;;;;;;;17.71;94.47;100143.38;5014749;28;20202;-80
2023/10/12 02:12:25;;;;;;;5.93;5.00;;;;;;;17.75;94.26;100144.13;5017735;28;20244;-82
2023/10/12 02:14:50;;;;;;;4.90;4.40;;;;;;;17.78;94.10;100146.59;5015662;28;20223;-82
2023/10/12 02:17:16;;;;;;;6.73;4.90;;;;;;;17.80;93.48;100140.41;5024529;28;20219;-82
2023/10/12 02:19:44;;;;;;;6.93;4.93;;;;;;;17.85;92.96;100147.22;5028378;28;20316;-81
2023/10/12 02:22:24;;;;;;;7.60;5.27;;;;;;;17.88;92.59;100147.94;5023615;28;20213;-85
2023/10/12 02:24:58;;;;;;;5.97;4.87;;;;;;;17.90;92.58;100147.84;5047214;28;20197;-84
2023/10/12 02:27:24;;;;;;;9.40;5.00;;;;;;;17.90;92.25;100148.72;5025326;28;20244;-81
2023/10/12 02:29:50;;;;;;;11.33;5.03;;;;;;;17.95;91.21;100144.13;5025193;28;20184;-80
2023/10/12 02:32:17;;;;;;;7.63;5.03;;;;;;;17.97;90.87;100147.56;5024549;28;20218;-80
2023/10/12 02:34:43;;;;;;;4.93;4.30;;;;;;;18.00;91.31;100141.34;5020250;28;20191;-80
2023/10/12 02:39:40;;;;;;;8.40;4.70;;;;;;;18.04;91.11;100140.31;5023008;28;20188;-80
2023/10/12 02:42:16;;;;;;;6.27;5.00;;;;;;;18.04;91.28;100144.72;5022723;28;20622;-81
2023/10/12 02:47:23;;;;;;;6.80;4.30;;;;;;;18.03;90.77;100138.59;5018105;28;20278;-79
2023/10/12 02:50:00;;;;;;;6.87;4.83;;;;;;;18.02;90.63;100141.28;5026722;28;20206;-80
2023/10/12 02:52:30;;;;;;;7.13;4.50;;;;;;;18.04;90.56;100145.53;5016378;28;20295;-82
2023/10/12 02:55:06;;;;;;;5.77;4.77;;;;;;;18.06;90.77;100140.25;5017752;28;20189;-79
2023/10/12 02:57:32;;;;;;;4.47;3.97;;;;;;;18.06;90.51;100145.50;5024220;28;20838;-80
2023/10/12 03:00:07;;;;;;;4.03;3.70;;;;;;;18.05;90.53;100154.25;5020084;28;20197;-80
2023/10/12 03:02:32;;;;;;;5.50;4.30;;;;;;;18.05;90.54;100147.25;5025707;28;20229;-81
2023/10/12 03:05:06;;;;;;;5.27;4.23;;;;;;;18.05;90.46;100149.03;5038499;28;20242;-82
2023/10/12 03:07:35;;;;;;;5.37;4.60;;;;;;;18.04;90.57;100155.19;5053192;28;20183;-82
2023/10/12 03:10:05;;;;;;;8.93;4.37;;;;;;;18.03;90.71;100158.72;5027356;28;20194;-82
2023/10/12 03:12:36;;;;;;;6.60;4.77;;;;;;;18.02;90.77;100163.09;5021906;28;20304;-83
2023/10/12 03:15:12;;;;;;;5.53;4.47;;;;;;;18.02;90.99;100154.38;5040907;28;20177;-83
2023/10/12 03:17:45;;;;;;;8.53;4.80;;;;;;;18.03;90.51;100150.84;5015305;28;20430;-80
2023/10/12 03:20:22;;;;;;;5.37;4.03;;;;;;;18.03;90.53;100156.94;5025757;28;20209;-82
2023/10/12 03:22:52;;;;;;;6.10;4.47;;;;;;;18.02;90.04;100163.09;5022626;28;20208;-83
2023/10/12 03:25:19;;;;;;;6.60;5.07;;;;;;;18.05;90.27;100168.19;5019988;28;20184;-82
2023/10/12 03:27:52;;;;;;;6.73;4.80;;;;;;;18.06;90.23;100171.69;5047362;28;20193;-82
2023/10/12 03:30:17;;;;;;;4.50;3.97;;;;;;;18.05;90.56;100167.34;5017996;28;20190;-81
2023/10/12 03:32:44;;;;;;;5.90;4.30;;;;;;;18.05;90.24;100170.81;5027210;28;20247;-81
2023/10/12 03:35:13;;;;;;;4.80;4.00;;;;;;;18.04;90.21;100179.59;5014746;28;20207;-83
2023/10/12 03:37:45;;;;;;;4.50;3.97;;;;;;;18.01;90.72;100177.09;5021784;28;20190;-84
2023/10/12 03:42:55;;;;;;;3.97;3.50;;;;;;;17.97;90.60;100170.28;5024899;28;20301;-82
2023/10/12 03:45:38;;;;;;;5.37;3.93;;;;;;;17.95;90.72;100180.78;5025227;28;20245;-81
2023/10/12 03:48:15;;;;;;;3.87;3.47;;;;;;;17.92;90.74;100175.66;5023862;28;20191;-81
2023/10/12 03:51:00;;;;;;;3.70;3.30;;;;;;;17.90;91.15;100177.53;5019777;28;20200;-80
2023/10/12 03:53:41;;;;;;;4.77;4.30;;;;;;;17.88;91.13;100181.09;5017272;28;20180;-80
2023/10/12 03:56:09;;;;;;;6.23;4.00;;;;;;;17.87;91.42;100184.63;5018107;28;20229;-78
2023/10/12 03:58:39;;;;;;;7.10;4.47;;;;;;;17.86;91.28;100181.19;5021396;28;20663;-80
2023/10/12 04:01:22;;;;;;;4.50;3.90;;;;;;;17.86;91.39;100183.78;5016194;28;20342;-81
2023/10/12 04:03:58;;;;;;;8.57;3.90;;;;;;;17.85;91.20;100189.94;5024299;28;20188;-80
2023/10/12 04:06:24;;;;;;;6.23;4.27;;;;;;;17.83;91.55;100195.25;5021431;28;20189;-81
2023/10/12 04:08:55;;;;;;;5.47;3.73;;;;;;;17.80;91.82;100199.75;5021556;28;20392;-84
2023/10/12 04:16:56;;;;;;;4.97;4.23;;;;;;;17.54;93.61;100191.19;5013657;28;20189;-83
2023/10/12 04:19:32;;;;;;;5.03;3.80;;;;;;;17.48;93.91;100194.88;5022899;28;20290;-82
2023/10/12 04:24:42;;;;;;;6.33;4.10;;;;;;;17.36;95.08;100177.06;5014498;28;20303;-82
2023/10/12 04:29:52;;;;;;;5.90;4.53;;;;;;;17.27;96.04;100182.63;5022063;28;20190;-78
2023/10/12 04:32:35;;;;;;;4.43;4.03;;;;;;;17.23;96.35;100187.13;5012447;28;20258;-83
2023/10/12 04:35:08;;;;;;;5.00;4.00;;;;;;;17.19;97.13;100183.78;5022249;28;20187;-84
2023/10/12 04:37:36;;;;;;;4.30;3.90;;;;;;;17.15;97.65;100192.66;5025670;28;20578;-79
2023/10/12 04:40:14;;;;;;;3.90;3.60;;;;;;;17.14;98.06;100188.34;5018382;28;20187;-82
2023/10/12 04:42:45;;;;;;;5.57;4.40;;;;;;;17.12;98.19;100191.94;5016317;28;20881;-81
2023/10/12 04:47:46;;;;;;;5.50;4.90;;;;;;;17.11;98.54;100208.53;5023106;28;20212;-80
2023/10/12 04:50:26;;;;;;;5.80;4.43;;;;;;;17.09;98.87;100202.50;5023132;28;20188;-82
2023/10/12 04:53:08;;;;;;;5.60;4.60;;;;;;;17.06;98.97;100204.31;5022010;28;20193;-84
2023/10/12 04:55:34;;;;;;;5.00;4.33;;;;;;;17.06;99.87;100209.53;5013043;28;20188;-83
2023/10/12 05:01:15;;;;;;;5.13;4.30;;;;;;;17.03;100.00;100201.81;5022009;28;20302;-83
2023/10/12 05:03:41;;;;;;;5.07;4.30;;;;;;;17.00;100.00;100212.41;5016211;28;20204;-81
2023/10/12 05:06:13;;;;;;;4.97;4.27;;;;;;;16.99;100.00;100202.84;5018662;28;20789;-82
2023/10/12 05:08:40;;;;;;;5.73;4.33;;;;;;;16.96;100.00;100197.72;5037233;28;20196;-78
2023/10/12 05:11:06;;;;;;;5.47;4.97;;;;;;;16.94;100.00;100209.13;5054613;28;20195;-81
2023/10/12 05:13:31;;;;;;;4.50;4.07;;;;;;;16.91;100.00;100204.84;5024080;28;20187;-85
2023/10/12 05:16:04;;;;;;;5.87;3.83;;;;;;;16.88;100.00;100207.56;5021839;28;20631;-80
2023/10/12 05:18:31;;;;;;;6.07;4.33;;;;;;;16.86;100.00;100209.41;5015043;28;20297;-83
2023/10/12 05:20:57;;;;;;;5.57;4.43;;;;;;;16.80;100.00;100202.63;5019002;28;20191;-82
2023/10/12 05:23:22;;;;;;;5.13;4.00;;;;;;;16.79;100.00;100211.38;5013932;28;20177;-81
2023/10/12 05:25:50;;;;;;;5.30;4.80;;;;;;;16.75;100.00;100200.19;5018161;28;20179;-80
2023/10/12 05:28:17;;;;;;;7.00;4.73;;;;;;;16.72;100.00;100195.06;5017021;28;20184;-82
2023/10/12 05:30:59;;;;;;;5.23;4.70;;;;;;;16.69;100.00;100200.41;5021220;28;20195;-81
2023/10/12 05:33:38;;;;;;;4.73;4.03;;;;;;;16.68;100.00;100200.44;5010922;28;20280;-82
2023/10/12 05:36:12;;;;;;;5.30;4.80;;;;;;;16.65;100.00;100208.41;5015596;28;20250;-79
2023/10/12 05:38:39;;;;;;;4.63;4.23;;;;;;;16.63;100.00;100211.06;5011774;28;20189;-81
2023/10/12 05:41:08;;;;;;;5.87;4.67;;;;;;;16.62;100.00;100209.38;5017142;28;20211;-81
2023/10/12 05:43:38;;;;;;;5.50;4.40;;;;;;;16.61;100.00;100207.66;5010741;28;20275;-81
2023/10/12 05:46:09;;;;;;;5.00;4.50;;;;;;;16.60;100.00;100211.19;5015243;28;20210;-79
2023/10/12 05:48:37;;;;;;;5.87;4.67;;;;;;;16.59;100.00;100204.25;5024094;28;20180;-83
2023/10/12 05:51:04;;;;;;;7.40;5.20;;;;;;;16.59;100.00;100206.84;5015876;28;20220;-80
2023/10/12 05:53:29;;;;;;;6.23;4.70;;;;;;;16.59;100.00;100199.88;5011903;28;20212;-81
2023/10/12 05:55:56;;;;;;;7.13;5.07;;;;;;;16.59;100.00;100197.28;5010261;28;20793;-79
2023/10/12 05:58:22;;;;;;;6.60;5.13;;;;;;;16.61;100.00;100202.44;5011719;28;20184;-79
2023/10/12 06:00:52;;;;;;;9.80;4.87;;;;;;;16.63;100.00;100199.78;5011099;28;20192;-81
2023/10/12 06:03:20;;;;;;;8.13;4.97;;;;;;;16.66;100.00;100197.03;5010924;28;20202;-80
2023/10/12 06:05:47;;;;;;;6.60;5.10;;;;;;;16.67;100.00;100196.13;5016290;28;20210;-81
2023/10/12 06:08:16;;;;;;;8.33;5.73;;;;;;;16.69;100.00;100203.03;5016149;28;21417;-79
2023/10/12 06:10:45;;;;;;;7.33;5.10;;;;;;;16.73;100.00;100206.38;5024143;28;20994;-82
2023/10/12 06:13:14;;;;;;;5.67;4.93;;;;;;;16.76;100.00;100201.03;5022914;28;20192;-80
2023/10/12 06:15:42;;;;;;;5.30;4.73;;;;;;;16.79;100.00;100213.97;5020746;28;22151;-82
2023/10/12 06:18:13;;;;;;;5.80;5.03;;;;;;;16.82;100.00;100216.47;5018479;28;20183;-79
2023/10/12 06:20:42;;;;;;;5.07;4.47;;;;;;;16.87;100.00;100224.16;5028037;28;20270;-82
2023/10/12 06:23:14;;;;;;;5.53;4.23;;;;;;;16.90;100.00;100221.44;5024670;28;20189;-80
2023/10/12 06:25:43;;;;;;;7.00;4.80;;;;;;;16.95;100.00;100218.69;5020583;28;20660;-82
2023/10/12 06:28:17;;;;;;;6.87;5.10;;;;;;;16.99;100.00;100215.91;5019310;28;20954;-79
2023/10/12 06:30:46;;;;;;;6.10;4.70;;;;;;;17.06;100.00;100225.22;5027903;28;20183;-80
2023/10/12 06:33:15;;;;;;;6.17;4.83;;;;;;;17.14;100.00;100214.47;5015708;28;20185;-80
2023/10/12 06:36:00;;;;;;;6.10;4.77;;;;;;;17.23;100.00;100223.75;5019623;28;20273;-83
2023/10/12 06:38:37;;;;;;;6.17;4.40;;;;;;;17.32;100.00;100228.63;5020782;28;20680;-83
2023/10/12 06:41:28;;;;;;;7.23;4.77;;;;;;;17.43;100.00;100228.22;5023984;28;21900;-82
2023/10/12 06:46:18;;;;;;;5.53;4.20;;;;;;;17.66;100.00;100236.94;5014752;28;20199;-80
2023/10/12 06:48:47;;;;;;;6.43;5.10;;;;;;;17.81;100.00;100238.97;5023046;28;20572;-82
2023/10/12 06:51:15;;;;;;;6.73;4.90;;;;;;;17.95;100.00;100248.84;5020799;28;20254;-80
2023/10/12 06:53:52;;;;;;;4.97;4.47;;;;;;;18.06;100.00;100245.00;5025647;28;20209;-80
2023/10/12 06:59:07;;;;;;;5.50;4.67;;;;;;;18.21;99.57;100259.22;5025660;28;20184;-82
2023/10/12 07:01:38;;;;;;;4.73;4.23;;;;;;;18.26;99.28;100257.28;5024837;28;20976;-83
2023/10/12 07:04:12;;;;;;;6.30;4.50;;;;;;;18.32;99.20;100261.41;5021007;28;20189;-82
2023/10/12 07:09:46;;;;;;;5.73;4.50;;;;;;;18.39;98.46;100271.56;5027276;28;20198;-82
2023/10/12 07:12:19;;;;;;;5.10;4.13;;;;;;;18.46;98.20;100272.16;5033313;28;20207;-78
2023/10/12 07:14:53;;;;;;;5.40;4.47;;;;;;;18.54;98.02;100264.81;5043802;28;20174;-77
2023/10/12 07:17:19;;;;;;;7.50;4.40;;;;;;;18.58;97.53;100255.91;5021018;28;20298;-80
2023/10/12 07:19:54;;;;;;;5.03;4.20;;;;;;;18.66;97.41;100252.94;5025052;28;20180;-80
2023/10/12 07:22:19;;;;;;;5.37;4.77;;;;;;;18.76;97.14;100260.41;5022863;28;20210;-78
2023/10/12 07:24:46;;;;;;;6.73;5.23;;;;;;;18.79;96.26;100261.16;5025316;28;20190;-78
2023/10/12 07:27:17;;;;;;;7.13;5.10;;;;;;;18.89;95.80;100278.16;5022302;28;20262;-79
2023/10/12 07:29:47;;;;;;;5.57;4.87;;;;;;;18.96;95.90;100283.19;5024519;28;20239;-79
2023/10/12 07:32:37;;;;;;;5.13;4.30;;;;;;;19.04;95.36;100284.56;5017656;28;20221;-80
2023/10/12 07:35:18;;;;;;;6.67;4.80;;;;;;;19.14;94.94;100282.34;5024674;28;20252;-77
2023/10/12 07:37:44;;;;;;;7.23;4.53;;;;;;;19.24;94.71;100282.78;5016102;28;20215;-78
2023/10/12 07:40:17;;;;;;;5.23;4.47;;;;;;;19.34;93.92;100284.09;5019263;28;20187;-79
2023/10/12 07:42:46;;;;;;;7.87;4.63;;;;;;;19.43;93.31;100276.69;5022190;28;20237;-79
2023/10/12 07:45:14;;;;;;;6.33;4.63;;;;;;;19.52;92.87;100271.00;5021212;28;20183;-81
2023/10/12 07:47:41;;;;;;;8.10;5.20;;;;;;;19.58;92.81;100270.75;5024448;28;20188;-82
2023/10/12 07:50:10;;;;;;;7.57;5.23;;;;;;;19.57;92.30;100270.81;5018310;28;20194;-80
2023/10/12 07:52:38;;;;;;;5.80;4.90;;;;;;;19.67;92.17;100271.22;5020378;28;20222;-80
2023/10/12 07:55:12;;;;;;;7.13;4.73;;;;;;;19.77;92.13;100268.09;5018840;28;20185;-79
2023/10/12 07:57:38;;;;;;;8.63;4.83;;;;;;;19.88;91.88;100278.13;5019620;28;20214;-80
2023/10/12 08:23:57;;;;;;;7.23;5.00;;;;;;;20.98;87.84;100266.53;5018228;28;20965;-79
2023/10/12 08:37:17;;;;;;;6.37;4.70;;;;;;;21.83;84.53;100258.47;5017791;28;20203;-81
2023/10/12 08:39:51;;;;;;;6.23;4.80;;;;;;;21.97;83.65;100266.44;5015755;28;20187;-79
2023/10/12 08:45:08;;;;;;;7.27;4.80;;;;;;;22.16;83.08;100270.66;5012849;28;20206;-82
2023/10/12 08:52:28;;;;;;;6.83;5.20;;;;;;;22.41;82.15;100262.16;5023859;28;20289;-83
2023/10/12 08:55:05;;;;;;;8.47;5.50;;;;;;;22.53;81.09;100263.25;5020500;28;20184;-81
2023/10/12 08:57:52;;;;;;;6.83;5.23;;;;;;;22.70;81.27;100264.88;5016737;28;20210;-81
2023/10/12 09:00:25;;;;;;;6.10;4.90;;;;;;;22.79;80.52;100272.22;5012812;28;20257;-81
2023/10/12 09:02:58;;;;;;;5.70;4.57;;;;;;;22.86;80.33;100269.22;5018646;28;20290;-79
2023/10/12 09:05:25;;;;;;;6.37;5.30;;;;;;;22.75;80.44;100264.59;5040152;28;20216;-81
2023/10/12 09:10:51;;;;;;;8.17;5.57;;;;;;;22.93;80.36;100267.88;5019351;28;20184;-84
2023/10/12 09:13:21;;;;;;;7.93;5.33;;;;;;;23.07;79.87;100277.59;5021660;28;20191;-83
2023/10/12 09:15:54;;;;;;;8.27;5.63;;;;;;;23.16;79.47;100270.91;5023040;28;20199;-79
2023/10/12 09:18:21;;;;;;;7.70;5.83;;;;;;;23.37;79.71;100268.75;5030121;28;20184;-81
2023/10/12 09:23:30;;;;;;;7.63;5.80;;;;;;;23.70;78.36;100267.56;5018409;28;20786;-82
2023/10/12 09:29:07;;;;;;;6.07;5.33;;;;;;;23.80;77.84;100275.72;5020894;28;20675;-80
2023/10/12 09:36:53;;;;;;;5.87;4.83;;;;;;;23.88;77.20;100289.28;5018744;28;20553;-80
2023/10/12 09:39:24;;;;;;;6.77;5.60;;;;;;;23.89;76.54;100293.63;5024514;28;20643;-81
2023/10/12 09:41:55;;;;;;;10.73;5.27;;;;;;;23.97;76.39;100303.72;5024175;28;20226;-82
2023/10/12 09:44:35;;;;;;;8.83;5.50;;;;;;;23.89;75.93;100301.56;5018011;28;20320;-84
2023/10/12 09:47:09;;;;;;;7.90;5.53;;;;;;;23.96;75.10;100296.72;5020988;28;20535;-80
2023/10/12 09:49:37;;;;;;;7.70;4.77;;;;;;;23.91;76.06;100294.38;5024446;28;20188;-83
2023/10/12 09:52:13;;;;;;;7.00;5.53;;;;;;;24.25;75.72;100301.91;5024848;28;20617;-80
2023/10/12 09:55:14;;;;;;;9.23;5.73;;;;;;;24.46;74.75;100291.69;5029959;28;20264;-82
2023/10/12 09:57:49;;;;;;;7.87;5.10;;;;;;;24.60;74.53;100293.41;5024627;28;20225;-83
2023/10/12 10:03:04;;;;;;;5.93;5.37;;;;;;;24.76;74.04;100309.97;5035791;28;20223;-81
2023/10/12 10:05:51;;;;;;;9.57;5.13;;;;;;;24.92;73.65;100311.56;5028021;28;20211;-82
2023/10/12 10:08:18;;;;;;;7.30;5.60;;;;;;;25.04;73.57;100312.50;5050485;28;20586;-83
2023/10/12 10:10:45;;;;;;;8.23;5.50;;;;;;;25.04;73.32;100313.34;5023456;28;20253;-83
2023/10/12 10:13:39;;;;;;;7.10;5.23;;;;;;;25.11;73.18;100314.59;5027834;28;20234;-82
2023/10/12 10:16:08;;;;;;;8.20;5.37;;;;;;;25.11;73.52;100322.53;5023398;28;20227;-81
2023/10/12 10:18:45;;;;;;;6.70;4.93;;;;;;;25.15;73.20;100325.84;5028314;28;20210;-84
2023/10/12 10:21:13;;;;;;;10.03;5.47;;;;;;;25.09;72.48;100316.53;5024792;28;20974;-83
2023/10/12 10:23:48;;;;;;;7.50;4.90;;;;;;;25.08;72.78;100322.78;5021939;28;20192;-82
2023/10/12 10:26:19;;;;;;;8.47;5.40;;;;;;;25.08;73.33;100335.16;5019573;28;20270;-85
2023/10/12 10:28:55;;;;;;;5.50;4.90;;;;;;;25.07;73.47;100341.41;5019143;28;20183;-81
2023/10/12 10:31:33;;;;;;;7.57;5.43;;;;;;;25.09;73.50;100343.00;5015843;28;20999;-82
2023/10/12 10:34:05;;;;;;;8.07;5.53;;;;;;;25.01;73.67;100337.38;5027382;28;20398;-83
2023/10/12 10:36:36;;;;;;;5.57;4.80;;;;;;;25.12;74.08;100341.94;5026083;28;20290;-83
2023/10/12 10:41:46;;;;;;;8.87;5.83;;;;;;;25.20;74.22;100341.41;5017026;28;20217;-80
2023/10/12 10:44:16;;;;;;;6.10;4.83;;;;;;;25.21;73.87;100338.66;5015202;28;20192;-84
2023/10/12 10:46:47;;;;;;;6.40;5.10;;;;;;;25.19;73.58;100332.59;5024876;28;20179;-80
2023/10/12 10:49:16;;;;;;;6.73;4.63;;;;;;;25.16;73.65;100343.44;5022068;28;20188;-81
2023/10/12 10:51:56;;;;;;;7.10;5.27;;;;;;;24.86;73.57;100336.66;5021854;28;20204;-82
2023/10/12 10:54:22;;;;;;;7.77;5.43;;;;;;;24.98;74.06;100342.88;5025532;28;20340;-84
2023/10/12 10:56:48;;;;;;;5.57;4.90;;;;;;;24.94;74.08;100352.84;5018639;28;20953;-83
2023/10/12 10:59:17;;;;;;;6.00;4.80;;;;;;;24.88;74.54;100347.97;5019111;28;20358;-83
2023/10/12 11:01:49;;;;;;;7.53;5.73;;;;;;;24.61;74.26;100356.78;5027468;28;20211;-85
2023/10/12 11:04:41;;;;;;;7.10;5.00;;;;;;;24.74;75.17;100348.06;5023497;28;20191;-84
2023/10/12 11:07:04;;;;;;;8.03;5.13;;;;;;;24.53;75.37;100350.31;5019203;28;20190;-84
2023/10/12 11:09:31;;;;;;;6.23;5.20;;;;;;;24.43;75.35;100368.63;5023155;28;20490;-83
2023/10/12 11:12:00;;;;;;;7.50;5.30;;;;;;;24.18;75.94;100372.84;5021350;28;20211;-84
2023/10/12 11:14:31;;;;;;;6.77;5.23;;;;;;;24.32;76.27;100369.31;5024910;28;20211;-83
2023/10/12 11:16:57;;;;;;;6.97;4.83;;;;;;;24.31;76.61;100373.75;5025473;28;20778;-82
2023/10/12 11:19:23;;;;;;;6.43;5.37;;;;;;;24.30;76.61;100372.06;5043187;28;20187;-82
2023/10/12 11:21:52;;;;;;;8.93;5.60;;;;;;;24.35;76.81;100377.06;5051877;28;20207;-80
2023/10/12 11:24:18;;;;;;;6.73;4.93;;;;;;;24.36;77.49;100365.50;5019432;28;20626;-81
2023/10/12 11:26:51;;;;;;;7.50;4.93;;;;;;;24.25;77.34;100363.59;5024935;28;20182;-81
2023/10/12 11:29:17;;;;;;;6.87;5.33;;;;;;;23.98;77.43;100358.28;5022928;28;20282;-81
2023/10/12 11:31:46;;;;;;;6.10;5.50;;;;;;;23.99;78.17;100352.06;5024450;28;20211;-79
2023/10/12 11:34:21;;;;;;;6.00;4.87;;;;;;;23.79;77.93;100355.94;5014967;28;20191;-81
2023/10/12 11:36:47;;;;;;;7.10;5.47;;;;;;;23.94;77.94;100359.38;5024656;28;20199;-81
2023/10/12 11:39:18;;;;;;;6.83;4.83;;;;;;;24.03;78.00;100351.75;5020222;28;20210;-80
2023/10/12 11:42:12;;;;;;;10.23;6.37;;;;;;;24.12;77.77;100355.59;5019152;28;20255;-81
2023/10/12 11:44:42;;;;;;;8.17;5.30;;;;;;;24.22;77.12;100340.00;5017177;28;20176;-79
2023/10/12 11:47:08;;;;;;;7.03;5.37;;;;;;;24.33;77.06;100332.19;5016731;28;20220;-80
2023/10/12 11:49:55;;;;;;;7.10;5.93;;;;;;;24.38;77.12;100334.53;5021728;28;20184;-78
2023/10/12 11:52:32;;;;;;;10.53;5.77;;;;;;;24.14;76.30;100316.69;5012943;28;20330;-84
2023/10/12 11:55:08;;;;;;;5.30;4.80;;;;;;;24.25;76.54;100339.78;5020110;28;20195;-80
2023/10/12 11:57:37;;;;;;;7.23;5.27;;;;;;;24.31;76.69;100349.94;5020915;28;20293;-82
2023/10/12 12:00:20;;;;;;;8.43;5.50;;;;;;;24.16;76.45;100330.66;5016443;28;20246;-82
2023/10/12 12:02:52;;;;;;;6.93;5.40;;;;;;;24.23;76.49;100332.88;5025143;28;20706;-81
2023/10/12 12:05:19;;;;;;;8.53;5.97;;;;;;;24.30;75.98;100337.66;5014279;28;20202;-82
2023/10/12 12:07:51;;;;;;;6.20;5.53;;;;;;;24.32;76.18;100317.25;5018705;28;20899;-83
2023/10/12 12:10:17;;;;;;;8.10;5.17;;;;;;;24.34;75.97;100290.72;5011973;28;20618;-82
2023/10/12 12:12:44;;;;;;;6.60;5.17;;;;;;;24.26;75.70;100279.81;5019342;28;20211;-80
2023/10/12 12:15:14;;;;;;;6.93;5.50;;;;;;;24.29;75.18;100292.84;5041104;28;20188;-82
2023/10/12 12:17:40;;;;;;;6.90;5.10;;;;;;;24.27;75.05;100308.81;5028067;28;20199;-81
2023/10/12 12:20:13;;;;;;;7.47;5.70;;;;;;;24.23;74.96;100298.50;5024843;28;20588;-85
2023/10/12 12:22:42;;;;;;;7.40;5.60;;;;;;;24.20;75.28;100294.28;5014809;28;20211;-82
2023/10/12 12:25:26;;;;;;;9.37;5.77;;;;;;;24.16;75.29;100301.59;5011131;28;20191;-80
2023/10/12 12:27:59;;;;;;;6.70;5.10;;;;;;;24.10;74.60;100298.50;5022337;28;20187;-82
2023/10/12 12:30:35;;;;;;;6.97;5.10;;;;;;;24.08;75.24;100287.16;5019809;28;20570;-82
2023/10/12 12:33:01;;;;;;;6.93;4.87;;;;;;;24.03;75.43;100272.44;5018529;28;20220;-82
2023/10/12 12:35:30;;;;;;;9.77;5.57;;;;;;;24.07;75.53;100259.88;5019203;28;21013;-80
2023/10/12 12:38:05;;;;;;;5.27;4.63;;;;;;;24.04;75.83;100257.47;5020954;28;20219;-83
2023/10/12 12:40:31;;;;;;;7.73;5.40;;;;;;;24.05;75.76;100243.25;5016563;28;20838;-82
2023/10/12 12:42:57;;;;;;;7.03;6.00;;;;;;;24.09;76.28;100236.81;5015959;28;20218;-83
2023/10/12 12:45:23;;;;;;;8.07;5.70;;;;;;;24.01;75.93;100232.06;5022905;28;20186;-81
2023/10/12 12:47:49;;;;;;;6.67;5.17;;;;;;;24.07;75.72;100227.31;5017508;28;20719;-80
2023/10/12 12:50:14;;;;;;;7.47;5.37;;;;;;;24.03;75.05;100221.41;5018931;28;20330;-84
2023/10/12 12:52:41;;;;;;;9.27;6.30;;;;;;;23.99;75.36;100228.66;5022648;28;20211;-79
2023/10/12 12:55:10;;;;;;;9.40;5.27;;;;;;;24.05;75.32;100227.41;5022499;28;20197;-83
2023/10/12 12:57:39;;;;;;;8.90;5.30;;;;;;;23.95;75.60;100221.88;5018605;28;20203;-81
2023/10/12 13:00:08;;;;;;;5.90;5.30;;;;;;;23.92;75.98;100215.91;5021645;28;20674;-82
2023/10/12 13:02:34;;;;;;;6.97;5.03;;;;;;;23.97;75.97;100214.72;5021499;28;20634;-79
2023/10/12 13:05:07;;;;;;;7.10;4.80;;;;;;;24.04;76.08;100216.00;5021416;28;20195;-81
2023/10/12 13:07:34;;;;;;;5.30;4.80;;;;;;;24.12;75.95;100206.72;5011637;28;20299;-81
2023/10/12 13:10:00;;;;;;;7.87;5.23;;;;;;;24.18;75.51;100206.28;5021385;28;20195;-80
2023/10/12 13:12:25;;;;;;;8.43;4.77;;;;;;;24.22;75.56;100207.78;5023746;28;20203;-81
2023/10/12 13:14:51;;;;;;;5.40;4.90;;;;;;;24.28;75.37;100203.88;5023055;28;20183;-85
2023/10/12 13:17:18;;;;;;;6.57;4.87;;;;;;;24.33;75.16;100199.13;5013034;28;20199;-84
2023/10/12 13:19:44;;;;;;;6.13;4.83;;;;;;;24.35;75.06;100200.69;5013401;28;20188;-84
2023/10/12 13:22:10;;;;;;;6.13;5.17;;;;;;;24.41;75.50;100196.78;5021969;28;20237;-85
2023/10/12 13:24:37;;;;;;;7.70;5.10;;;;;;;24.27;75.49;100195.09;5034260;28;20217;-83
2023/10/12 13:27:08;;;;;;;5.87;5.00;;;;;;;24.43;75.22;100199.34;5049813;28;20195;-82
2023/10/12 13:29:34;;;;;;;6.70;4.97;;;;;;;24.48;75.66;100194.56;5046565;28;20179;-84